createdAt,value
2018-12-01T00:03:38.459Z,100120.92
2018-12-01T00:07:56.100Z,100124.67
2018-12-01T00:12:04.890Z,100120.52
2018-12-01T00:16:13.646Z,100108.01
2018-12-01T00:20:23.771Z,100115.02
2018-12-01T00:24:31.562Z,100107.03
2018-12-01T00:28:39.286Z,100104.92
2018-12-01T00:32:48.440Z,100100.30
2018-12-01T00:36:56.958Z,100105.55
2018-12-01T00:41:05.562Z,100108.58
2018-12-01T00:45:20.702Z,100112.22
2018-12-01T00:49:28.576Z,100111.08
2018-12-01T00:53:36.250Z,100123.60
2018-12-01T00:57:43.971Z,100122.67
2018-12-01T01:01:51.529Z,100129.98
2018-12-01T01:05:59.693Z,100131.81
2018-12-01T01:10:10.414Z,100139.42
2018-12-01T01:14:17.838Z,100137.58
2018-12-01T01:18:25.656Z,100143.23
2018-12-01T01:22:33.338Z,100134.09
2018-12-01T01:26:41.117Z,100141.05
2018-12-01T01:30:48.700Z,100145.95
2018-12-01T01:34:56.502Z,100144.95
2018-12-01T01:39:04.366Z,100149.71
2018-12-01T01:43:13.021Z,100152.73
2018-12-01T01:47:20.461Z,100149.71
2018-12-01T01:51:28.303Z,100156.84
2018-12-01T01:55:35.874Z,100160.71
2018-12-01T01:59:43.425Z,100161.06
2018-12-01T02:03:50.950Z,100154.44
2018-12-01T02:08:01.810Z,100153.13
2018-12-01T02:12:10.648Z,100146.23
2018-12-01T02:16:18.356Z,100143.13
2018-12-01T02:20:26.400Z,100141.34
2018-12-01T02:24:34.258Z,100139.12
2018-12-01T02:28:41.675Z,100143.73
2018-12-01T02:32:52.347Z,100141.17
2018-12-01T02:37:00.166Z,100139.51
2018-12-01T02:41:08.755Z,100135.11
2018-12-01T02:46:09.811Z,100129.76
2018-12-01T02:50:24.019Z,100129.08
2018-12-01T02:54:31.695Z,100122.70
2018-12-01T02:58:41.117Z,100115.39
2018-12-01T03:02:49.106Z,100118.08
2018-12-01T03:06:56.911Z,100122.73
2018-12-01T03:11:04.499Z,100127.13
2018-12-01T03:15:19.787Z,100129.23
2018-12-01T03:19:30.495Z,100126.20
2018-12-01T03:23:38.205Z,100135.46
2018-12-01T03:27:45.980Z,100131.91
2018-12-01T03:31:53.559Z,100129.64
2018-12-01T03:36:01.980Z,100124.16
2018-12-01T03:40:10.124Z,100130.81
2018-12-01T03:44:20.108Z,100133.72
2018-12-01T03:48:27.959Z,100140.70
2018-12-01T03:52:35.688Z,100138.52
2018-12-01T03:56:43.290Z,100145.64
2018-12-01T04:00:50.963Z,100141.98
2018-12-01T04:04:58.574Z,100150.35
2018-12-01T04:09:25.438Z,100158.09
2018-12-01T04:13:34.040Z,100152.84
2018-12-01T04:17:43.929Z,100158.50
2018-12-01T04:21:51.375Z,100164.98
2018-12-01T04:25:59.712Z,100157.98
2018-12-01T04:30:33.451Z,100158.84
2018-12-01T04:34:40.974Z,100153.00
2018-12-01T04:38:48.967Z,100160.59
2018-12-01T04:42:56.549Z,100164.39
2018-12-01T04:47:04.212Z,100162.67
2018-12-01T04:51:14.192Z,100162.69
2018-12-01T04:55:22.737Z,100163.25
2018-12-01T04:59:30.256Z,100164.45
2018-12-01T05:03:37.635Z,100170.27
2018-12-01T05:07:46.132Z,100173.10
2018-12-01T05:11:53.905Z,100182.53
2018-12-01T05:16:01.664Z,100179.73
2018-12-01T05:20:22.501Z,100183.86
2018-12-01T05:24:30.053Z,100193.67
2018-12-01T05:28:37.577Z,100185.81
2018-12-01T05:32:45.523Z,100188.67
2018-12-01T05:36:55.349Z,100194.14
2018-12-01T05:41:03.096Z,100203.09
2018-12-01T05:45:21.653Z,100204.61
2018-12-01T05:49:29.407Z,100209.27
2018-12-01T05:53:42.037Z,100209.45
2018-12-01T05:57:50.182Z,100213.95
2018-12-01T06:01:58.041Z,100215.11
2018-12-01T06:06:06.121Z,100215.56
2018-12-01T06:10:23.324Z,100202.94
2018-12-01T06:14:31.264Z,100209.94
2018-12-01T06:18:38.958Z,100216.86
2018-12-01T06:22:46.861Z,100217.43
2018-12-01T06:26:54.657Z,100217.04
2018-12-01T06:31:02.328Z,100219.41
2018-12-01T06:35:10.178Z,100220.98
2018-12-01T06:39:17.710Z,100216.37
2018-12-01T06:43:25.401Z,100222.91
2018-12-01T06:47:33.256Z,100222.91
2018-12-01T06:51:41.694Z,100224.63
2018-12-01T06:55:49.154Z,100224.48
2018-12-01T06:59:56.616Z,100221.08
2018-12-01T07:04:04.576Z,100228.59
2018-12-01T07:08:16.832Z,100224.13
2018-12-01T07:12:24.683Z,100223.48
2018-12-01T07:16:32.350Z,100232.45
2018-12-01T07:20:40.048Z,100236.93
2018-12-01T07:24:51.618Z,100242.02
2018-12-01T07:29:06.967Z,100239.48
2018-12-01T07:33:14.790Z,100240.71
2018-12-01T07:37:22.279Z,100236.95
2018-12-01T07:41:30.137Z,100227.39
2018-12-01T07:45:40.259Z,100228.59
2018-12-01T07:49:48.074Z,100224.66
2018-12-01T07:53:55.823Z,100224.13
2018-12-01T07:58:03.821Z,100219.52
2018-12-01T08:02:11.527Z,100216.92
2018-12-01T08:06:29.364Z,100222.57
2018-12-01T08:10:37.755Z,100229.27
2018-12-01T08:14:46.126Z,100218.81
2018-12-01T08:18:54.628Z,100212.56
2018-12-01T08:23:04.233Z,100212.14
2018-12-01T08:27:12.633Z,100211.22
2018-12-01T08:31:25.878Z,100205.65
2018-12-01T08:35:33.765Z,100212.35
2018-12-01T08:39:41.795Z,100214.69
2018-12-01T08:43:49.365Z,100212.16
2018-12-01T08:47:57.403Z,100213.08
2018-12-01T08:52:06.280Z,100220.98
2018-12-01T08:56:13.730Z,100217.94
2018-12-01T09:00:42.322Z,100212.95
2018-12-01T09:04:50.003Z,100222.40
2018-12-01T09:08:57.945Z,100224.74
2018-12-01T09:13:05.705Z,100230.52
2018-12-01T09:17:14.994Z,100226.27
2018-12-01T09:21:22.595Z,100229.04
2018-12-01T09:25:38.286Z,100220.53
2018-12-01T09:29:47.197Z,100235.48
2018-12-01T09:33:54.858Z,100231.16
2018-12-01T09:38:03.071Z,100223.70
2018-12-01T09:42:11.055Z,100212.38
2018-12-01T09:46:19.523Z,100203.68
2018-12-01T09:50:27.400Z,100217.50
2018-12-01T09:54:35.217Z,100220.22
2018-12-01T09:58:46.451Z,100217.39
2018-12-01T10:02:52.770Z,100219.56
2018-12-01T10:07:00.556Z,100226.56
2018-12-01T10:11:08.197Z,100217.82
2018-12-01T10:15:29.132Z,100218.02
2018-12-01T10:19:36.951Z,100214.25
2018-12-01T10:23:44.877Z,100202.45
2018-12-01T10:27:52.849Z,100199.08
2018-12-01T10:32:00.553Z,100201.67
2018-12-01T10:36:09.597Z,100206.30
2018-12-01T10:40:17.559Z,100197.95
2018-12-01T10:44:25.583Z,100207.78
2018-12-01T10:48:36.279Z,100191.99
2018-12-01T10:52:44.372Z,100189.25
2018-12-01T10:56:52.227Z,100186.48
2018-12-01T11:01:17.046Z,100200.02
2018-12-01T11:05:27.501Z,100193.43
2018-12-01T11:09:35.350Z,100193.84
2018-12-01T11:13:43.291Z,100181.21
2018-12-01T11:17:51.371Z,100178.34
2018-12-01T11:21:58.974Z,100170.87
2018-12-01T11:26:06.775Z,100155.91
2018-12-01T11:30:18.772Z,100147.91
2018-12-01T11:34:26.183Z,100147.31
2018-12-01T11:38:34.405Z,100140.52
2018-12-01T11:42:42.214Z,100127.61
2018-12-01T11:46:50.406Z,100129.52
2018-12-01T11:50:58.141Z,100113.40
2018-12-01T11:55:06.277Z,100114.59
2018-12-01T11:59:13.901Z,100103.94
2018-12-01T12:03:27.806Z,100101.30
2018-12-01T12:08:28.061Z,100104.66
2018-12-01T12:12:35.736Z,100094.57
2018-12-01T12:16:43.459Z,100089.68
2018-12-01T12:20:51.247Z,100101.67
2018-12-01T12:25:01.002Z,100088.36
2018-12-01T12:29:24.049Z,100082.36
2018-12-01T12:33:35.574Z,100077.42
2018-12-01T12:37:45.864Z,100082.95
2018-12-01T12:41:59.585Z,100071.21
2018-12-01T12:46:14.745Z,100071.06
2018-12-01T12:50:26.019Z,100058.25
2018-12-01T12:54:36.849Z,100051.51
2018-12-01T12:58:45.751Z,100050.44
2018-12-01T13:03:12.099Z,100044.84
2018-12-01T13:07:20.471Z,100048.07
2018-12-01T13:11:39.574Z,100031.99
2018-12-01T13:15:48.881Z,100029.95
2018-12-01T13:19:56.877Z,100026.59
2018-12-01T13:24:04.627Z,100024.64
2018-12-01T13:28:29.333Z,100025.36
2018-12-01T13:32:37.737Z,100019.27
2018-12-01T13:36:45.627Z,100012.19
2018-12-01T13:40:56.821Z,100000.93
2018-12-01T13:45:06.163Z,99996.81
2018-12-01T13:49:19.801Z,100006.29
2018-12-01T13:53:31.344Z,100010.28
2018-12-01T13:57:47.583Z,100009.56
2018-12-01T14:01:57.583Z,100005.00
2018-12-01T14:06:07.495Z,99995.64
2018-12-01T14:10:36.721Z,99997.31
2018-12-01T14:14:45.464Z,100001.16
2018-12-01T14:18:57.807Z,100007.25
2018-12-01T14:23:13.606Z,99998.28
2018-12-01T14:27:26.965Z,100001.29
2018-12-01T14:31:47.486Z,99999.48
2018-12-01T14:35:59.385Z,100001.19
2018-12-01T14:40:13.872Z,99994.01
2018-12-01T14:44:21.399Z,99992.09
2018-12-01T14:48:28.846Z,99995.56
2018-12-01T14:52:37.105Z,99991.14
2018-12-01T14:56:45.518Z,99983.83
2018-12-01T15:00:52.949Z,99993.52
2018-12-01T15:05:00.443Z,99991.41
2018-12-01T15:09:11.434Z,99987.80
2018-12-01T15:13:21.486Z,99980.48
2018-12-01T15:17:35.073Z,99975.34
2018-12-01T15:21:46.647Z,99977.86
2018-12-01T15:25:54.420Z,99975.83
2018-12-01T15:30:07.749Z,99975.02
2018-12-01T15:34:15.932Z,99982.20
2018-12-01T15:38:23.823Z,99985.31
2018-12-01T15:42:34.345Z,99982.08
2018-12-01T15:46:46.255Z,99977.28
2018-12-01T15:50:52.431Z,99981.48
2018-12-01T15:55:02.823Z,99978.27
2018-12-01T15:59:10.394Z,99980.16
2018-12-01T16:03:19.975Z,99979.91
2018-12-01T16:07:29.199Z,99968.56
2018-12-01T16:11:37.884Z,99964.48
2018-12-01T16:15:57.682Z,99967.25
2018-12-01T16:20:25.822Z,99964.84
2018-12-01T16:24:44.559Z,99958.97
2018-12-01T16:28:54.548Z,99955.62
2018-12-01T16:33:09.717Z,99957.19
2018-12-01T16:37:26.454Z,99951.67
2018-12-01T16:41:41.775Z,99950.48
2018-12-01T16:45:55.316Z,99935.98
2018-12-01T16:50:14.329Z,99936.36
2018-12-01T16:54:25.066Z,99927.75
2018-12-01T16:58:41.197Z,99923.32
2018-12-01T17:03:11.982Z,99914.33
2018-12-01T17:07:30.201Z,99910.75
2018-12-01T17:11:41.934Z,99901.87
2018-12-01T17:15:51.822Z,99892.66
2018-12-01T17:20:00.053Z,99894.35
2018-12-01T17:24:10.007Z,99894.58
2018-12-01T17:28:22.699Z,99888.72
2018-12-01T17:32:41.847Z,99881.91
2018-12-01T17:36:51.482Z,99882.00
2018-12-01T17:41:15.033Z,99879.75
2018-12-01T17:45:28.633Z,99875.93
2018-12-01T17:49:40.329Z,99869.34
2018-12-01T17:53:59.387Z,99861.66
2018-12-01T17:58:10.879Z,99864.89
2018-12-01T18:02:19.241Z,99865.39
2018-12-01T18:06:30.719Z,99865.60
2018-12-01T18:10:48.710Z,99866.06
2018-12-01T18:15:09.316Z,99860.44
2018-12-01T18:19:17.968Z,99866.42
2018-12-01T18:23:26.575Z,99869.77
2018-12-01T18:27:36.916Z,99870.11
2018-12-01T18:31:44.637Z,99866.05
2018-12-01T18:35:52.466Z,99868.34
2018-12-01T18:40:00.251Z,99864.63
2018-12-01T18:44:09.749Z,99854.91
2018-12-01T18:48:17.791Z,99853.25
2018-12-01T18:52:25.907Z,99852.28
2018-12-01T18:56:33.890Z,99838.89
2018-12-01T19:00:49.953Z,99834.69
2018-12-01T19:04:57.610Z,99830.48
2018-12-01T19:09:06.313Z,99830.48
2018-12-01T19:13:14.964Z,99824.02
2018-12-01T19:17:22.990Z,99828.71
2018-12-01T19:21:30.719Z,99827.05
2018-12-01T19:25:39.285Z,99815.06
2018-12-01T19:29:47.094Z,99815.06
2018-12-01T19:33:54.717Z,99794.45
2018-12-01T19:38:02.812Z,99787.17
2018-12-01T19:42:10.775Z,99787.67
2018-12-01T19:46:18.884Z,99780.58
2018-12-01T19:50:39.054Z,99767.41
2018-12-01T19:54:46.952Z,99756.30
2018-12-01T19:58:54.769Z,99749.95
2018-12-01T20:03:08.056Z,99753.45
2018-12-01T20:07:16.360Z,99750.70
2018-12-01T20:11:24.477Z,99747.09
2018-12-01T20:15:43.770Z,99747.92
2018-12-01T20:19:54.711Z,99746.84
2018-12-01T20:24:04.523Z,99735.59
2018-12-01T20:28:12.661Z,99717.99
2018-12-01T20:32:20.743Z,99721.86
2018-12-01T20:36:34.883Z,99712.36
2018-12-01T20:40:43.224Z,99707.83
2018-12-01T20:44:54.221Z,99704.03
2018-12-01T20:49:02.470Z,99703.51
2018-12-01T20:53:11.300Z,99696.92
2018-12-01T20:57:33.653Z,99687.13
2018-12-01T21:01:44.103Z,99679.03
2018-12-01T21:05:51.990Z,99676.56
2018-12-01T21:10:00.822Z,99679.22
2018-12-01T21:14:09.115Z,99670.00
2018-12-01T21:18:17.052Z,99666.43
2018-12-01T21:22:24.964Z,99666.56
2018-12-01T21:26:33.410Z,99661.16
2018-12-01T21:30:41.791Z,99657.53
2018-12-01T21:34:49.526Z,99652.66
2018-12-01T21:38:57.331Z,99654.05
2018-12-01T21:43:05.523Z,99648.52
2018-12-01T21:47:13.395Z,99642.78
2018-12-01T21:51:21.255Z,99640.72
2018-12-01T21:55:29.259Z,99627.35
2018-12-01T21:59:37.124Z,99623.73
2018-12-01T22:03:45.015Z,99612.69
2018-12-01T22:07:52.761Z,99599.38
2018-12-01T22:12:01.430Z,99599.11
2018-12-01T22:16:11.273Z,99587.34
2018-12-01T22:20:25.948Z,99586.73
2018-12-01T22:24:35.792Z,99587.91
2018-12-01T22:28:43.470Z,99591.12
2018-12-01T22:33:20.849Z,99576.15
2018-12-01T22:37:28.431Z,99576.99
2018-12-01T22:41:36.053Z,99571.11
2018-12-01T22:45:44.868Z,99571.67
2018-12-01T22:49:52.483Z,99569.04
2018-12-01T22:54:00.509Z,99556.95
2018-12-01T22:58:14.009Z,99548.20
2018-12-01T23:02:21.631Z,99561.38
2018-12-01T23:06:29.428Z,99549.27
2018-12-01T23:10:37.065Z,99544.95
2018-12-01T23:14:44.988Z,99547.86
2018-12-01T23:18:52.931Z,99538.16
2018-12-01T23:23:02.936Z,99527.05
2018-12-01T23:27:13.136Z,99532.56
2018-12-01T23:31:19.314Z,99541.84
2018-12-01T23:35:26.931Z,99534.11
2018-12-01T23:39:34.652Z,99527.09
2018-12-01T23:43:42.261Z,99525.45
2018-12-01T23:47:50.592Z,99509.58
2018-12-01T23:52:00.915Z,99508.03
2018-12-01T23:56:11.877Z,99496.04
